Time;durP1;ratioP1;P1;durP2;ratioP2;P2;SDS_P1;SDS_P2;PMS_P1;PMS_P2;Temp;Humidity;BMP_temperature;BMP_pressure;BME280_temperature;BME280_humidity;BME280_pressure;Samples;Min_cycle;Max_cycle;Signal;HPM_P1;HPM_P2
2022/04/03 00:00:17;;;;;;;1.60;1.50;;;;;;;12.94;52.31;93521.09;5113305;28;20188;-78
2022/04/03 00:02:44;;;;;;;1.50;1.40;;;;;;;12.94;52.26;93512.63;5083113;28;20220;-77
2022/04/03 00:05:10;;;;;;;2.13;1.97;;;;;;;12.93;52.01;93524.66;5089354;28;20189;-78
2022/04/03 00:07:37;;;;;;;1.40;1.40;;;;;;;12.93;51.96;93519.53;5093126;28;20196;-75
2022/04/03 00:10:05;;;;;;;1.70;1.60;;;;;;;12.97;51.54;93518.19;5095307;28;20185;-76
2022/04/03 00:12:32;;;;;;;1.40;1.30;;;;;;;12.99;51.47;93510.31;5109380;28;20193;-77
2022/04/03 00:15:00;;;;;;;1.93;1.67;;;;;;;12.94;51.67;93494.66;5111033;28;20579;-77
2022/04/03 00:17:27;;;;;;;1.47;1.37;;;;;;;12.96;52.00;93500.41;5112709;28;20223;-75
2022/04/03 00:19:53;;;;;;;2.23;1.50;;;;;;;12.95;52.42;93496.25;5093033;28;20661;-75
2022/04/03 00:22:20;;;;;;;2.20;1.60;;;;;;;12.91;52.68;93508.66;5092328;28;20263;-75
2022/04/03 00:24:47;;;;;;;1.37;1.27;;;;;;;12.88;52.96;93519.28;5092335;28;20699;-75
2022/04/03 00:27:14;;;;;;;2.23;1.60;;;;;;;12.87;52.90;93509.22;5092045;28;20673;-75
2022/04/03 00:29:41;;;;;;;2.40;1.67;;;;;;;12.87;53.01;93509.22;5092517;28;20186;-74
2022/04/03 00:32:09;;;;;;;1.80;1.70;;;;;;;12.81;53.12;93503.78;5093476;28;20189;-75
2022/04/03 00:34:36;;;;;;;3.30;1.80;;;;;;;12.81;53.14;93498.66;5112382;28;20191;-75
2022/04/03 00:37:04;;;;;;;2.80;1.77;;;;;;;12.80;53.15;93499.66;5112582;28;20212;-76
2022/04/03 00:39:30;;;;;;;2.30;1.63;;;;;;;12.77;53.69;93499.22;5112476;28;20721;-76
2022/04/03 00:41:57;;;;;;;2.97;1.60;;;;;;;12.77;53.80;93499.22;5112356;28;20196;-75
2022/04/03 00:44:25;;;;;;;3.20;2.10;;;;;;;12.76;53.80;93498.41;5112438;28;20181;-76
2022/04/03 00:46:52;;;;;;;3.00;1.63;;;;;;;12.76;53.72;93500.19;5111956;28;20181;-79
2022/04/03 00:49:20;;;;;;;1.70;1.60;;;;;;;12.72;53.96;93501.53;5111458;28;20210;-75
2022/04/03 00:51:47;;;;;;;2.03;1.93;;;;;;;12.73;54.02;93498.78;5112091;28;20196;-75
2022/04/03 00:54:14;;;;;;;1.70;1.60;;;;;;;12.71;54.09;93505.88;5091588;28;20222;-76
2022/04/03 00:56:41;;;;;;;3.57;2.30;;;;;;;12.70;54.13;93506.84;5091786;28;20624;-74
2022/04/03 00:59:09;;;;;;;4.53;2.20;;;;;;;12.67;54.39;93507.19;5091403;28;20224;-73
2022/04/03 01:01:37;;;;;;;3.20;2.13;;;;;;;12.45;54.65;93474.78;5092581;28;20732;-74
2022/04/03 01:04:04;;;;;;;4.43;1.93;;;;;;;12.73;54.25;93516.72;5111966;28;20192;-76
2022/04/03 01:06:33;;;;;;;1.97;1.87;;;;;;;12.74;54.30;93514.97;5112175;28;20177;-76
2022/04/03 01:09:00;;;;;;;2.23;2.00;;;;;;;12.75;54.13;93516.56;5111562;28;20200;-76
2022/04/03 01:11:27;;;;;;;2.53;2.30;;;;;;;12.63;54.20;93503.41;5112435;28;20187;-78
2022/04/03 01:13:54;;;;;;;3.63;2.20;;;;;;;12.77;53.76;93519.72;5110608;28;20200;-76
2022/04/03 01:16:21;;;;;;;2.30;2.10;;;;;;;12.76;53.16;93516.38;5111643;28;20180;-77
2022/04/03 01:18:49;;;;;;;2.63;2.00;;;;;;;12.75;52.60;93524.25;5111851;28;20192;-78
2022/04/03 01:21:17;;;;;;;3.17;2.10;;;;;;;12.73;52.40;93524.41;5098534;28;20186;-78
2022/04/03 01:23:46;;;;;;;4.90;2.10;;;;;;;12.73;52.05;93518.50;5091220;28;20194;-76
2022/04/03 01:26:15;;;;;;;3.13;1.90;;;;;;;12.67;51.96;93520.03;5091181;28;20197;-76
2022/04/03 01:28:42;;;;;;;3.23;2.10;;;;;;;12.59;51.51;93511.63;5091312;28;20186;-78
2022/04/03 01:31:09;;;;;;;3.80;2.00;;;;;;;12.66;51.59;93512.50;5092441;28;20201;-78
2022/04/03 01:33:36;;;;;;;1.90;1.80;;;;;;;12.65;51.44;93516.84;5111518;28;20223;-78
2022/04/03 01:36:03;;;;;;;2.47;1.60;;;;;;;12.61;51.35;93518.19;5111004;28;20220;-77
2022/04/03 01:38:29;;;;;;;1.90;1.70;;;;;;;12.56;51.45;93528.16;5111560;28;20221;-77
2022/04/03 01:40:56;;;;;;;1.93;1.80;;;;;;;12.57;51.21;93536.66;5111112;28;20191;-77
2022/04/03 01:43:24;;;;;;;2.80;1.63;;;;;;;12.53;51.37;93537.03;5111188;28;20195;-77
2022/04/03 01:45:51;;;;;;;1.87;1.77;;;;;;;12.51;51.52;93533.81;5110582;28;20193;-77
2022/04/03 01:48:18;;;;;;;3.90;2.27;;;;;;;12.50;51.45;93536.56;5111305;28;20263;-75
2022/04/03 01:50:46;;;;;;;4.27;1.93;;;;;;;12.52;51.43;93525.19;5109432;28;20271;-76
2022/04/03 01:53:13;;;;;;;5.77;2.77;;;;;;;12.50;50.98;93521.19;5110986;28;20221;-77
2022/04/03 01:55:40;;;;;;;3.53;2.30;;;;;;;12.44;51.00;93524.47;5110533;28;20682;-76
2022/04/03 01:58:09;;;;;;;4.57;2.50;;;;;;;12.38;51.11;93509.78;5110670;28;20224;-76
2022/04/03 02:00:39;;;;;;;4.43;2.60;;;;;;;12.37;51.17;93511.56;5110420;28;20185;-77
2022/04/03 02:03:06;;;;;;;3.80;2.17;;;;;;;12.27;51.04;93511.03;5091647;28;20190;-77
2022/04/03 02:05:33;;;;;;;3.00;2.10;;;;;;;12.27;51.03;93516.97;5091742;28;20197;-74
2022/04/03 02:08:00;;;;;;;4.73;1.93;;;;;;;12.22;51.13;93508.22;5090423;28;20194;-76
2022/04/03 02:10:27;;;;;;;3.47;1.90;;;;;;;12.16;51.14;93501.22;5104198;28;20193;-77
2022/04/03 02:12:53;;;;;;;2.63;1.97;;;;;;;12.18;51.28;93500.09;5110340;28;20191;-77
2022/04/03 02:15:20;;;;;;;2.30;2.07;;;;;;;12.14;51.45;93503.97;5110708;28;20185;-79
2022/04/03 02:17:49;;;;;;;3.07;1.77;;;;;;;12.11;51.36;93503.53;5110349;28;20220;-75
2022/04/03 02:20:15;;;;;;;4.40;1.97;;;;;;;12.07;51.38;93499.72;5110793;28;20188;-76
2022/04/03 02:22:42;;;;;;;3.47;1.90;;;;;;;11.99;51.38;93498.81;5109460;28;20188;-76
2022/04/03 02:25:11;;;;;;;2.00;1.80;;;;;;;11.99;51.61;93495.47;5110470;28;20196;-76
2022/04/03 02:27:39;;;;;;;2.07;1.87;;;;;;;11.95;51.71;93497.56;5110158;28;20285;-76
2022/04/03 02:30:08;;;;;;;2.63;1.90;;;;;;;11.90;51.62;93489.63;5097156;28;20186;-75
2022/04/03 02:32:36;;;;;;;2.60;2.00;;;;;;;11.80;51.74;93478.81;5089768;28;20217;-76
2022/04/03 02:35:06;;;;;;;5.03;2.00;;;;;;;11.83;51.79;93506.69;5090092;28;20230;-75
2022/04/03 02:37:34;;;;;;;3.83;2.07;;;;;;;11.79;52.07;93519.00;5089852;28;20209;-75
2022/04/03 02:40:01;;;;;;;4.00;2.00;;;;;;;11.77;52.21;93512.44;5089615;28;20198;-75
2022/04/03 02:42:28;;;;;;;4.57;1.97;;;;;;;11.62;52.29;93499.63;5104611;28;20188;-76
2022/04/03 02:44:54;;;;;;;1.73;1.63;;;;;;;11.71;52.36;93513.94;5110182;28;20189;-75
2022/04/03 02:47:22;;;;;;;1.97;1.80;;;;;;;11.71;52.34;93510.59;5110255;28;20200;-74
2022/04/03 02:49:49;;;;;;;1.80;1.70;;;;;;;11.71;52.49;93519.06;5110290;28;20561;-77
2022/04/03 02:52:18;;;;;;;4.13;1.90;;;;;;;11.70;52.46;93512.38;5110051;28;20299;-78
2022/04/03 02:54:45;;;;;;;2.33;2.13;;;;;;;11.73;52.30;93508.66;5109637;28;20192;-75
2022/04/03 02:57:12;;;;;;;1.90;1.80;;;;;;;11.73;52.48;93511.22;5109496;28;20259;-75
2022/04/03 02:59:39;;;;;;;2.93;1.77;;;;;;;11.72;52.42;93512.19;5110064;28;20185;-77
2022/04/03 03:02:06;;;;;;;2.83;2.17;;;;;;;11.72;52.39;93507.84;5095209;28;20200;-75
2022/04/03 03:04:35;;;;;;;1.90;1.80;;;;;;;11.67;52.28;93499.09;5089639;28;20207;-76
2022/04/03 03:07:02;;;;;;;1.90;1.80;;;;;;;11.77;52.33;93508.13;5089677;28;20196;-75
2022/04/03 03:09:30;;;;;;;2.37;2.17;;;;;;;11.80;52.33;93512.13;5089643;28;20194;-74
2022/04/03 03:11:58;;;;;;;2.13;1.60;;;;;;;11.83;52.24;93503.31;5089696;28;20700;-75
2022/04/03 03:14:25;;;;;;;1.67;1.57;;;;;;;11.84;51.88;93505.72;5092920;28;20625;-74
2022/04/03 03:16:52;;;;;;;1.90;1.77;;;;;;;11.85;52.03;93509.06;5108357;28;20185;-77
2022/04/03 03:19:19;;;;;;;1.60;1.50;;;;;;;11.87;51.61;93507.91;5113716;28;20227;-75
2022/04/03 03:21:46;;;;;;;1.70;1.60;;;;;;;11.88;51.73;93514.63;5113391;28;20820;-76
2022/04/03 03:24:13;;;;;;;1.97;1.70;;;;;;;11.89;51.78;93515.44;5113807;28;20296;-77
2022/04/03 03:26:42;;;;;;;1.83;1.73;;;;;;;11.88;51.81;93509.50;5113708;28;20710;-75
2022/04/03 03:29:09;;;;;;;1.60;1.50;;;;;;;11.91;51.60;93521.16;5114039;28;20628;-76
2022/04/03 03:31:36;;;;;;;1.70;1.60;;;;;;;11.97;51.64;93510.22;5098367;28;20224;-75
2022/04/03 03:34:03;;;;;;;1.60;1.50;;;;;;;11.96;51.39;93524.81;5093276;28;20246;-75
2022/04/03 03:36:30;;;;;;;2.17;1.67;;;;;;;11.94;51.62;93531.84;5092865;28;20201;-75
2022/04/03 03:38:57;;;;;;;2.27;1.63;;;;;;;11.96;51.47;93531.66;5093031;28;20225;-77
2022/04/03 03:41:24;;;;;;;1.83;1.60;;;;;;;11.97;51.41;93530.72;5104181;28;20200;-77
2022/04/03 03:43:52;;;;;;;1.43;1.30;;;;;;;11.89;51.27;93526.47;5113455;28;20192;-75
2022/04/03 03:46:19;;;;;;;1.60;1.50;;;;;;;11.94;51.20;93538.75;5098817;28;20186;-78
2022/04/03 03:48:46;;;;;;;1.57;1.47;;;;;;;11.92;51.02;93540.69;5093045;28;20190;-77
2022/04/03 03:51:12;;;;;;;2.27;1.43;;;;;;;11.88;50.97;93535.13;5092938;28;20707;-74
2022/04/03 03:53:39;;;;;;;1.30;1.30;;;;;;;11.88;50.73;93540.25;5092607;28;20229;-77
2022/04/03 03:56:06;;;;;;;1.70;1.60;;;;;;;11.91;50.75;93554.47;5095564;28;20193;-76
2022/04/03 03:58:33;;;;;;;1.37;1.30;;;;;;;11.88;50.52;93553.06;5112557;28;20259;-77
2022/04/03 04:01:01;;;;;;;1.70;1.50;;;;;;;11.89;50.50;93561.53;5102790;28;20668;-78
2022/04/03 04:03:28;;;;;;;1.53;1.43;;;;;;;11.88;50.33;93567.63;5092746;28;20629;-77
2022/04/03 04:05:55;;;;;;;1.47;1.37;;;;;;;11.86;50.10;93567.78;5092949;28;20255;-79
2022/04/03 04:08:22;;;;;;;1.50;1.40;;;;;;;11.88;50.01;93568.44;5092508;28;20208;-80
2022/04/03 04:10:49;;;;;;;1.17;1.17;;;;;;;11.85;49.85;93566.22;5095111;28;20196;-78
2022/04/03 04:13:15;;;;;;;2.80;1.70;;;;;;;11.88;49.71;93581.22;5113089;28;20181;-79
2022/04/03 04:15:42;;;;;;;1.57;1.47;;;;;;;11.87;49.61;93584.75;5113181;28;20623;-77
2022/04/03 04:18:10;;;;;;;1.43;1.30;;;;;;;11.90;49.18;93578.50;5113110;28;20224;-78
2022/04/03 04:20:37;;;;;;;1.10;1.10;;;;;;;11.91;49.36;93595.44;5106006;28;20194;-77
2022/04/03 04:23:04;;;;;;;1.43;1.33;;;;;;;11.93;49.09;93599.44;5094157;28;20186;-80
2022/04/03 04:25:31;;;;;;;1.40;1.30;;;;;;;11.98;49.30;93601.47;5094195;28;20261;-76
2022/04/03 04:27:58;;;;;;;1.40;1.30;;;;;;;11.99;49.26;93613.31;5112300;28;20657;-77
2022/04/03 04:30:25;;;;;;;1.50;1.40;;;;;;;12.01;49.19;93619.88;5112233;28;20695;-78
2022/04/03 04:32:53;;;;;;;1.33;1.33;;;;;;;12.06;49.06;93614.22;5112233;28;20193;-77
2022/04/03 04:35:21;;;;;;;1.10;1.10;;;;;;;12.09;49.05;93623.31;5112642;28;20201;-73
2022/04/03 04:37:48;;;;;;;5.53;1.83;;;;;;;12.17;48.69;93615.56;5112421;28;20222;-77
2022/04/03 04:40:15;;;;;;;2.20;1.20;;;;;;;12.22;48.78;93623.56;5106389;28;20190;-75
2022/04/03 04:42:43;;;;;;;1.80;1.40;;;;;;;12.30;48.74;93624.28;5091890;28;20734;-75
2022/04/03 04:45:10;;;;;;;2.03;1.50;;;;;;;12.39;48.52;93629.31;5091837;28;20178;-75
2022/04/03 04:47:38;;;;;;;1.30;1.30;;;;;;;12.49;48.35;93633.22;5091795;28;20182;-75
2022/04/03 04:50:08;;;;;;;1.30;1.30;;;;;;;12.58;48.19;93636.50;5091699;28;20197;-76
2022/04/03 04:52:36;;;;;;;1.40;1.30;;;;;;;12.69;48.17;93633.47;5091615;28;20712;-75
2022/04/03 04:55:05;;;;;;;1.23;1.23;;;;;;;12.80;47.86;93630.50;5091775;28;20190;-75
2022/04/03 04:57:33;;;;;;;1.47;1.40;;;;;;;12.91;47.80;93629.25;5092099;28;20228;-73
2022/04/03 04:59:59;;;;;;;1.10;1.10;;;;;;;13.04;47.42;93637.13;5095580;28;20737;-76
2022/04/03 05:02:26;;;;;;;1.40;1.30;;;;;;;13.19;47.20;93642.22;5111779;28;20633;-74
2022/04/03 05:04:53;;;;;;;1.80;1.50;;;;;;;13.40;46.92;93633.03;5111735;28;20564;-75
2022/04/03 05:07:20;;;;;;;1.60;1.30;;;;;;;13.60;46.75;93641.75;5112274;28;20193;-77
2022/04/03 05:09:50;;;;;;;2.10;1.30;;;;;;;13.77;46.18;93640.53;5105713;28;20264;-77
2022/04/03 05:12:17;;;;;;;1.20;1.20;;;;;;;13.93;45.70;93643.81;5091584;28;20208;-78
2022/04/03 05:14:44;;;;;;;1.37;1.27;;;;;;;14.11;45.64;93661.38;5091537;28;20211;-76
2022/04/03 05:17:11;;;;;;;1.60;1.50;;;;;;;14.19;45.03;93659.47;5091530;28;20198;-77
2022/04/03 05:19:39;;;;;;;2.00;1.20;;;;;;;14.32;44.95;93667.31;5093612;28;20724;-74
2022/04/03 05:22:06;;;;;;;2.40;1.33;;;;;;;14.35;44.85;93662.78;5111100;28;20197;-74
2022/04/03 05:24:33;;;;;;;1.20;1.20;;;;;;;14.35;44.56;93658.44;5111520;28;20208;-77
2022/04/03 05:27:01;;;;;;;1.73;1.27;;;;;;;14.35;44.21;93663.56;5111088;28;20192;-75
2022/04/03 05:29:28;;;;;;;1.40;1.30;;;;;;;14.38;43.94;93668.34;5110785;28;20261;-77
2022/04/03 05:31:55;;;;;;;1.10;1.10;;;;;;;14.53;43.88;93673.44;5090960;28;20194;-72
2022/04/03 05:34:21;;;;;;;2.63;1.50;;;;;;;14.88;44.16;93679.41;5091469;28;20178;-75
2022/04/03 05:36:48;;;;;;;1.20;1.20;;;;;;;15.44;44.02;93681.09;5095768;28;20193;-74
2022/04/03 05:39:15;;;;;;;1.17;1.13;;;;;;;16.15;44.03;93678.94;5106472;28;20585;-75
2022/04/03 05:41:42;;;;;;;1.20;1.20;;;;;;;16.99;49.65;93693.81;5096780;28;20186;-79
2022/04/03 05:44:10;;;;;;;1.20;1.20;;;;;;;17.90;46.31;93692.94;5091470;28;20181;-75
2022/04/03 05:46:37;;;;;;;2.30;2.00;;;;;;;18.90;57.91;93687.88;5090857;28;20192;-75
2022/04/03 05:49:03;;;;;;;1.93;1.30;;;;;;;19.86;53.63;93691.69;5090747;28;20649;-76
2022/04/03 05:51:30;;;;;;;2.27;1.40;;;;;;;20.79;48.41;93698.16;5090898;28;20197;-75
2022/04/03 05:53:57;;;;;;;3.40;1.20;;;;;;;21.61;44.56;93698.13;5090602;28;20282;-75
2022/04/03 05:56:27;;;;;;;1.33;1.23;;;;;;;22.42;41.78;93704.06;5090302;28;20659;-74
2022/04/03 05:58:55;;;;;;;1.98;1.20;;;;;;;23.16;39.18;93711.75;5090695;28;20224;-73
2022/04/03 06:01:23;;;;;;;7.07;1.30;;;;;;;23.85;41.20;93711.38;5090457;28;20224;-76
2022/04/03 06:03:50;;;;;;;3.28;0.93;;;;;;;24.34;42.88;93710.56;5090458;28;20239;-74
2022/04/03 06:06:17;;;;;;;8.45;1.70;;;;;;;24.81;42.78;93715.19;5080138;28;20196;-74
2022/04/03 06:08:44;;;;;;;1.42;1.20;;;;;;;25.24;41.78;93717.63;5086814;28;20625;-72
2022/04/03 06:11:11;;;;;;;1.30;1.20;;;;;;;25.68;40.30;93727.03;5090305;28;20702;-72
2022/04/03 06:13:38;;;;;;;1.13;1.05;;;;;;;26.01;39.54;93736.38;5089884;28;20189;-76
2022/04/03 06:16:05;;;;;;;1.67;1.30;;;;;;;26.38;38.08;93738.84;5094545;28;20242;-75
2022/04/03 06:18:33;;;;;;;4.47;1.33;;;;;;;26.69;37.91;93747.56;5109765;28;20204;-77
2022/04/03 06:21:00;;;;;;;1.55;1.45;;;;;;;27.04;34.47;93742.59;5094612;28;20672;-76
2022/04/03 06:23:27;;;;;;;6.00;1.60;;;;;;;27.23;36.54;93741.03;5100229;28;21902;-75
2022/04/03 06:26:04;;;;;;;29.92;6.68;;;;;;;27.51;36.37;93737.84;5110028;28;20337;-80
2022/04/03 06:28:31;;;;;;;17.95;4.75;;;;;;;27.84;36.26;93750.66;5110272;28;20215;-79
2022/04/03 06:30:59;;;;;;;6.57;3.03;;;;;;;28.13;35.50;93746.34;5110523;28;20189;-79
2022/04/03 06:33:26;;;;;;;6.80;2.30;;;;;;;28.38;34.35;93761.25;5110576;28;20188;-78
2022/04/03 06:35:54;;;;;;;6.25;2.50;;;;;;;28.57;33.78;93756.13;5110813;28;20193;-80
2022/04/03 06:38:21;;;;;;;4.72;2.10;;;;;;;28.80;33.72;93756.50;5101616;28;20600;-79
2022/04/03 06:40:50;;;;;;;8.05;2.63;;;;;;;28.99;33.40;93765.34;5091474;28;20190;-77
2022/04/03 06:43:18;;;;;;;4.65;2.58;;;;;;;29.14;33.46;93762.59;5103367;28;20201;-77
2022/04/03 06:45:45;;;;;;;4.95;2.08;;;;;;;29.39;33.63;93771.34;5110100;28;20626;-76
2022/04/03 06:48:12;;;;;;;3.75;1.83;;;;;;;29.61;32.03;93784.84;5111961;28;20189;-71
2022/04/03 06:50:39;;;;;;;6.55;2.47;;;;;;;29.77;31.71;93782.06;5114502;28;20187;-71
2022/04/03 06:53:07;;;;;;;4.25;1.80;;;;;;;29.96;32.10;93788.19;5114273;28;20715;-71
2022/04/03 06:55:34;;;;;;;4.18;1.75;;;;;;;30.14;30.08;93786.66;5110585;28;20245;-72
2022/04/03 06:58:01;;;;;;;3.42;1.80;;;;;;;30.05;30.22;93793.63;5093975;28;20201;-74
2022/04/03 07:00:28;;;;;;;6.32;2.33;;;;;;;29.87;31.10;93784.59;5093842;28;20217;-73
2022/04/03 07:02:55;;;;;;;1.70;1.50;;;;;;;29.64;31.53;93788.78;5094383;28;20264;-75
2022/04/03 07:05:23;;;;;;;2.92;1.52;;;;;;;29.37;31.62;93797.97;5093729;28;20189;-74
2022/04/03 07:07:52;;;;;;;2.88;1.58;;;;;;;29.20;32.26;93805.47;5094031;28;20193;-71
2022/04/03 07:10:21;;;;;;;3.95;2.13;;;;;;;29.08;32.52;93811.09;5093241;28;20190;-72
2022/04/03 07:12:48;;;;;;;2.10;1.60;;;;;;;28.86;32.21;93806.22;5093621;28;20185;-75
2022/04/03 07:15:14;;;;;;;3.95;1.63;;;;;;;28.68;31.89;93807.63;5093581;28;20186;-74
2022/04/03 07:17:42;;;;;;;3.47;1.77;;;;;;;28.66;32.95;93812.38;5093690;28;20200;-74
2022/04/03 07:20:13;;;;;;;3.08;1.35;;;;;;;28.65;32.53;93820.53;5093473;28;20205;-77
2022/04/03 07:22:41;;;;;;;2.10;1.50;;;;;;;28.59;33.01;93814.53;5109017;28;20185;-72
2022/04/03 07:25:08;;;;;;;3.05;1.48;;;;;;;28.64;32.46;93817.13;5107304;28;20281;-79
2022/04/03 07:27:37;;;;;;;1.75;1.40;;;;;;;28.79;32.03;93826.78;5093346;28;20209;-76
2022/04/03 07:30:05;;;;;;;1.50;1.40;;;;;;;28.92;32.14;93825.38;5093432;28;20763;-78
2022/04/03 07:32:32;;;;;;;1.55;1.45;;;;;;;28.95;32.51;93830.09;5093567;28;20190;-72
2022/04/03 07:34:59;;;;;;;3.25;1.70;;;;;;;29.00;32.26;93816.94;5093674;28;20221;-69
2022/04/03 07:37:26;;;;;;;3.25;1.50;;;;;;;29.12;32.00;93830.56;5113763;28;20181;-78
2022/04/03 07:39:53;;;;;;;4.22;1.98;;;;;;;29.26;32.46;93828.06;5106960;28;20550;-73
2022/04/03 07:42:20;;;;;;;1.88;1.60;;;;;;;29.34;32.53;93827.50;5092727;28;20212;-73
2022/04/03 07:44:48;;;;;;;4.18;1.73;;;;;;;29.48;31.06;93838.16;5092908;28;20312;-73
2022/04/03 07:47:15;;;;;;;2.72;1.30;;;;;;;29.78;28.61;93837.16;5092770;28;20251;-73
2022/04/03 07:49:42;;;;;;;1.50;1.30;;;;;;;30.10;28.40;93841.84;5093173;28;20633;-73
2022/04/03 07:52:09;;;;;;;6.45;1.40;;;;;;;30.23;28.36;93845.69;5108815;28;20200;-72
2022/04/03 07:54:38;;;;;;;4.10;1.10;;;;;;;30.19;27.58;93863.94;5113013;28;20181;-73
2022/04/03 07:57:06;;;;;;;1.27;1.27;;;;;;;30.06;26.65;93858.50;5111127;28;20710;-72
2022/04/03 07:59:33;;;;;;;3.10;1.20;;;;;;;29.93;26.16;93855.47;5095154;28;20311;-74
2022/04/03 08:02:02;;;;;;;1.00;1.00;;;;;;;29.86;25.73;93862.91;5092802;28;20182;-72
2022/04/03 08:04:29;;;;;;;1.35;1.10;;;;;;;29.92;25.75;93863.63;5093009;28;20189;-72
2022/04/03 08:06:56;;;;;;;1.30;1.20;;;;;;;30.02;25.47;93866.19;5092713;28;20193;-75
2022/04/03 08:09:23;;;;;;;2.78;1.38;;;;;;;30.11;25.15;93851.31;5104140;28;20192;-74
2022/04/03 08:11:50;;;;;;;1.50;1.30;;;;;;;30.31;24.59;93846.91;5112927;28;20652;-76
2022/04/03 08:14:18;;;;;;;1.33;1.23;;;;;;;30.52;24.45;93869.34;5110701;28;20205;-78
2022/04/03 08:16:44;;;;;;;1.40;1.10;;;;;;;30.73;24.11;93862.00;5094201;28;20182;-76
2022/04/03 08:19:13;;;;;;;1.05;1.05;;;;;;;30.90;23.57;93856.22;5096111;28;20202;-75
2022/04/03 08:21:40;;;;;;;3.97;1.35;;;;;;;31.18;23.42;93857.94;5092470;28;20204;-74
2022/04/03 08:24:07;;;;;;;0.95;0.93;;;;;;;31.32;23.48;93850.09;5092082;28;20208;-75
2022/04/03 08:26:34;;;;;;;1.50;1.20;;;;;;;31.37;23.78;93865.88;5092494;28;20573;-74
2022/04/03 08:29:01;;;;;;;1.63;1.52;;;;;;;31.29;23.46;93863.09;5092204;28;20201;-75
2022/04/03 08:31:29;;;;;;;1.85;1.00;;;;;;;31.26;22.94;93856.50;5091994;28;20196;-75
2022/04/03 08:33:57;;;;;;;1.20;1.10;;;;;;;31.15;23.26;93871.72;5092262;28;20629;-75
2022/04/03 08:36:26;;;;;;;1.02;1.00;;;;;;;30.90;23.35;93864.94;5092186;28;20186;-75
2022/04/03 08:38:52;;;;;;;2.60;1.27;;;;;;;30.62;23.33;93866.59;5091870;28;20615;-75
2022/04/03 08:41:19;;;;;;;1.58;1.10;;;;;;;30.38;23.21;93861.34;5091842;28;20182;-75
2022/04/03 08:43:47;;;;;;;2.35;1.25;;;;;;;30.12;23.23;93862.66;5092236;28;20190;-74
2022/04/03 08:46:14;;;;;;;2.05;1.20;;;;;;;29.79;23.18;93867.69;5091818;28;20604;-76
2022/04/03 08:48:45;;;;;;;1.98;1.20;;;;;;;29.36;23.10;93878.06;5092133;28;20190;-74
2022/04/03 08:51:11;;;;;;;2.88;1.10;;;;;;;28.89;23.48;93871.47;5091899;28;20182;-76
2022/04/03 08:53:40;;;;;;;3.65;1.17;;;;;;;28.63;23.32;93862.94;5091896;28;20573;-75
2022/04/03 08:56:07;;;;;;;1.98;1.00;;;;;;;28.59;23.52;93876.91;5091638;28;20679;-76
2022/04/03 08:58:34;;;;;;;2.22;1.02;;;;;;;28.43;23.82;93881.41;5091752;28;20215;-75
2022/04/03 09:01:02;;;;;;;1.20;1.10;;;;;;;28.23;23.92;93871.72;5091449;28;20224;-74
2022/04/03 09:03:29;;;;;;;2.15;1.10;;;;;;;28.02;23.70;93881.47;5091938;28;20193;-76
2022/04/03 09:06:12;;;;;;;2.92;1.27;;;;;;;27.88;24.15;93880.47;5091473;28;20208;-75
2022/04/03 09:08:41;;;;;;;2.38;1.27;;;;;;;27.88;24.07;93877.84;5091344;28;20224;-73
2022/04/03 09:11:07;;;;;;;3.67;1.30;;;;;;;27.81;24.33;93880.75;5090410;28;20201;-75
2022/04/03 09:13:34;;;;;;;1.58;1.48;;;;;;;27.71;24.24;93885.97;5091386;28;20561;-75
2022/04/03 09:16:01;;;;;;;2.08;1.17;;;;;;;27.62;24.54;93874.41;5091447;28;20217;-73
2022/04/03 09:18:43;;;;;;;2.70;1.10;;;;;;;27.60;24.53;93882.56;5091330;28;20193;-75
2022/04/03 09:21:16;;;;;;;1.00;1.00;;;;;;;27.60;24.26;93887.03;5090997;28;20225;-74
2022/04/03 09:24:02;;;;;;;1.85;1.20;;;;;;;27.51;24.46;93889.41;5091591;28;20192;-74
2022/04/03 09:26:29;;;;;;;1.33;1.00;;;;;;;27.36;24.29;93897.25;5091416;28;20276;-75
2022/04/03 09:29:10;;;;;;;1.05;1.00;;;;;;;27.10;24.78;93906.94;5091062;28;20193;-75
2022/04/03 09:31:37;;;;;;;1.00;1.00;;;;;;;26.79;24.80;93906.03;5091376;28;20200;-76
2022/04/03 09:34:05;;;;;;;1.25;1.23;;;;;;;26.36;24.98;93906.09;5091151;28;20185;-76
2022/04/03 09:36:34;;;;;;;1.25;1.23;;;;;;;26.05;25.15;93907.75;5091053;28;20293;-75
2022/04/03 09:39:08;;;;;;;1.58;1.48;;;;;;;25.67;25.91;93898.31;5090994;28;20560;-76
2022/04/03 09:41:36;;;;;;;1.58;1.48;;;;;;;25.36;25.91;93902.50;5091179;28;20192;-75
2022/04/03 09:44:17;;;;;;;1.60;1.50;;;;;;;25.02;26.06;93897.44;5091026;28;20215;-75
2022/04/03 09:46:44;;;;;;;1.20;1.10;;;;;;;24.80;26.65;93897.47;5091065;28;20266;-75
2022/04/03 09:49:24;;;;;;;1.17;1.10;;;;;;;24.50;26.88;93901.31;5090605;28;20182;-75
2022/04/03 09:51:50;;;;;;;1.10;1.10;;;;;;;24.20;27.16;93900.91;5090839;28;20272;-75
2022/04/03 09:54:20;;;;;;;1.20;1.20;;;;;;;23.93;27.22;93912.03;5090294;28;20229;-77
2022/04/03 09:56:47;;;;;;;1.30;1.17;;;;;;;23.46;27.45;93872.41;5090895;28;20220;-75
2022/04/03 09:59:13;;;;;;;1.17;1.13;;;;;;;23.45;27.23;93915.97;5090201;28;21081;-75
2022/04/03 10:01:43;;;;;;;1.13;1.02;;;;;;;23.24;27.28;93914.06;5090728;28;20216;-73
2022/04/03 10:04:13;;;;;;;1.48;1.10;;;;;;;23.00;27.23;93929.00;5090625;28;20186;-74
2022/04/03 10:06:40;;;;;;;4.28;1.30;;;;;;;22.79;27.12;93923.38;5090386;28;20189;-75
2022/04/03 10:09:11;;;;;;;0.95;0.95;;;;;;;22.58;27.37;93921.41;5090637;28;20189;-75
2022/04/03 10:11:40;;;;;;;1.20;1.20;;;;;;;22.31;27.36;93908.09;5090210;28;20194;-75
2022/04/03 10:14:08;;;;;;;1.27;1.17;;;;;;;22.25;27.59;93928.03;5090679;28;20189;-75
2022/04/03 10:16:35;;;;;;;2.45;1.20;;;;;;;22.09;27.95;93930.50;5090365;28;20212;-76
2022/04/03 10:19:02;;;;;;;1.70;1.42;;;;;;;22.00;28.36;93933.44;5090615;28;20200;-76
2022/04/03 10:21:37;;;;;;;1.75;1.48;;;;;;;21.89;28.84;93929.06;5089823;28;20225;-75
2022/04/03 10:24:09;;;;;;;2.25;1.80;;;;;;;21.80;29.13;93933.00;5090038;28;20235;-76
2022/04/03 10:26:38;;;;;;;1.63;1.52;;;;;;;21.78;29.40;93930.63;5089753;28;20197;-77
2022/04/03 10:29:10;;;;;;;1.70;1.60;;;;;;;21.79;29.54;93934.00;5089923;28;20611;-77
2022/04/03 10:31:38;;;;;;;2.80;1.80;;;;;;;21.74;29.79;93936.50;5089765;28;20193;-77
2022/04/03 10:34:05;;;;;;;2.00;1.80;;;;;;;21.64;29.94;93926.66;5090101;28;20228;-75
2022/04/03 10:36:34;;;;;;;1.57;1.47;;;;;;;21.50;30.28;93933.88;5090258;28;20182;-75
2022/04/03 10:39:04;;;;;;;2.90;2.10;;;;;;;21.37;30.35;93921.03;5090075;28;20259;-75
2022/04/03 10:41:34;;;;;;;2.77;1.90;;;;;;;21.32;30.47;93927.94;5089806;28;20213;-75
2022/04/03 10:44:21;;;;;;;2.72;2.08;;;;;;;21.25;30.61;93922.81;5090235;28;20193;-74
2022/04/03 10:47:22;;;;;;;2.60;2.20;;;;;;;21.18;30.69;93928.09;5090142;28;20190;-74
2022/04/03 10:50:00;;;;;;;3.07;2.27;;;;;;;21.08;30.77;93937.47;5089747;28;20565;-76
2022/04/03 10:52:48;;;;;;;2.47;2.17;;;;;;;20.93;30.98;93932.63;5089654;28;20345;-75
2022/04/03 10:55:20;;;;;;;2.10;1.60;;;;;;;20.83;31.30;93951.38;5089784;28;20204;-75
2022/04/03 10:57:49;;;;;;;1.80;1.70;;;;;;;20.71;31.40;93945.31;5089404;28;20182;-75
2022/04/03 11:00:47;;;;;;;2.50;1.90;;;;;;;20.60;31.64;93949.44;5089909;28;20225;-75
2022/04/03 11:03:35;;;;;;;2.27;1.73;;;;;;;20.51;32.01;93956.75;5089669;28;20272;-75
2022/04/03 11:06:22;;;;;;;3.60;2.23;;;;;;;20.46;32.21;93948.75;5089984;28;20177;-74
2022/04/03 11:09:00;;;;;;;3.93;2.30;;;;;;;20.43;32.65;93943.22;5089987;28;20189;-75
2022/04/03 11:11:41;;;;;;;3.30;2.40;;;;;;;20.34;32.96;93934.91;5089641;28;20189;-74
2022/04/03 11:14:10;;;;;;;3.03;2.10;;;;;;;20.39;33.22;93942.84;5089579;28;20208;-75
2022/04/03 11:16:55;;;;;;;2.43;2.10;;;;;;;20.41;33.26;93942.63;5089436;28;20284;-74
2022/04/03 11:19:40;;;;;;;1.90;1.80;;;;;;;20.44;33.13;93924.81;5089683;28;20618;-75
2022/04/03 11:22:10;;;;;;;2.47;2.00;;;;;;;20.45;32.86;93936.78;5089657;28;20189;-75
2022/04/03 11:24:38;;;;;;;1.83;1.73;;;;;;;20.41;32.87;93924.44;5089755;28;20189;-75
2022/04/03 11:27:06;;;;;;;2.13;1.80;;;;;;;20.36;33.00;93938.06;5089802;28;20197;-74
2022/04/03 11:29:34;;;;;;;2.80;2.20;;;;;;;20.35;33.19;93938.31;5089119;28;20201;-76
2022/04/03 11:32:05;;;;;;;2.27;1.90;;;;;;;20.23;33.17;93938.22;5089294;28;20672;-74
2022/04/03 11:34:32;;;;;;;3.40;2.30;;;;;;;20.22;33.12;93954.81;5091612;28;20178;-75
2022/04/03 11:37:00;;;;;;;2.27;1.97;;;;;;;20.14;33.14;93949.91;5093414;28;20193;-74
2022/04/03 11:39:35;;;;;;;2.50;2.30;;;;;;;20.02;33.38;93944.59;5093230;28;20220;-74